sensor_id;sensor_type;location;lat;lon;timestamp;P1;durP1;ratioP1;P2;durP2;ratioP2
78410;SDS011;67706;51.074;-1.796;2023-09-18T00:02:16;6.93;;;2.90;;
78410;SDS011;67706;51.074;-1.796;2023-09-18T00:04:42;5.93;;;2.67;;
78410;SDS011;67706;51.074;-1.796;2023-09-18T00:07:08;5.65;;;2.65;;
78410;SDS011;67706;51.074;-1.796;2023-09-18T00:09:36;5.93;;;3.03;;
78410;SDS011;67706;51.074;-1.796;2023-09-18T00:12:02;4.90;;;2.72;;
78410;SDS011;67706;51.074;-1.796;2023-09-18T00:14:29;5.88;;;2.83;;
78410;SDS011;67706;51.074;-1.796;2023-09-18T00:19:22;5.93;;;2.50;;
78410;SDS011;67706;51.074;-1.796;2023-09-18T00:21:48;5.85;;;2.45;;
78410;SDS011;67706;51.074;-1.796;2023-09-18T00:24:14;7.18;;;2.38;;
78410;SDS011;67706;51.074;-1.796;2023-09-18T00:26:43;2.58;;;1.75;;
78410;SDS011;67706;51.074;-1.796;2023-09-18T00:29:11;3.75;;;2.10;;
78410;SDS011;67706;51.074;-1.796;2023-09-18T00:31:37;3.58;;;1.88;;
78410;SDS011;67706;51.074;-1.796;2023-09-18T00:36:28;2.72;;;1.83;;
78410;SDS011;67706;51.074;-1.796;2023-09-18T00:41:20;2.63;;;1.50;;
78410;SDS011;67706;51.074;-1.796;2023-09-18T00:46:13;2.70;;;1.52;;
78410;SDS011;67706;51.074;-1.796;2023-09-18T00:48:39;2.72;;;1.38;;
78410;SDS011;67706;51.074;-1.796;2023-09-18T00:51:05;4.03;;;1.52;;
78410;SDS011;67706;51.074;-1.796;2023-09-18T00:53:32;2.85;;;1.55;;
78410;SDS011;67706;51.074;-1.796;2023-09-18T00:55:58;8.40;;;2.05;;
78410;SDS011;67706;51.074;-1.796;2023-09-18T00:58:26;3.28;;;1.80;;
78410;SDS011;67706;51.074;-1.796;2023-09-18T01:00:53;3.10;;;1.30;;
78410;SDS011;67706;51.074;-1.796;2023-09-18T01:03:19;4.75;;;1.48;;
78410;SDS011;67706;51.074;-1.796;2023-09-18T01:05:46;2.42;;;1.30;;
78410;SDS011;67706;51.074;-1.796;2023-09-18T01:10:40;2.63;;;1.20;;
78410;SDS011;67706;51.074;-1.796;2023-09-18T01:13:14;3.95;;;1.63;;
78410;SDS011;67706;51.074;-1.796;2023-09-18T01:15:48;2.95;;;1.60;;
78410;SDS011;67706;51.074;-1.796;2023-09-18T01:18:18;2.88;;;1.52;;
78410;SDS011;67706;51.074;-1.796;2023-09-18T01:20:44;4.18;;;1.95;;
78410;SDS011;67706;51.074;-1.796;2023-09-18T01:23:11;3.08;;;1.63;;
78410;SDS011;67706;51.074;-1.796;2023-09-18T01:25:37;7.32;;;2.08;;
78410;SDS011;67706;51.074;-1.796;2023-09-18T01:28:03;5.75;;;1.40;;
78410;SDS011;67706;51.074;-1.796;2023-09-18T01:30:29;3.35;;;1.60;;
78410;SDS011;67706;51.074;-1.796;2023-09-18T01:35:22;3.10;;;1.42;;
78410;SDS011;67706;51.074;-1.796;2023-09-18T01:40:37;2.58;;;1.48;;
78410;SDS011;67706;51.074;-1.796;2023-09-18T01:43:05;2.78;;;1.60;;
78410;SDS011;67706;51.074;-1.796;2023-09-18T01:45:32;3.00;;;1.48;;
78410;SDS011;67706;51.074;-1.796;2023-09-18T01:47:59;3.97;;;1.90;;
78410;SDS011;67706;51.074;-1.796;2023-09-18T01:50:25;4.32;;;1.67;;
78410;SDS011;67706;51.074;-1.796;2023-09-18T01:52:52;3.58;;;1.85;;
78410;SDS011;67706;51.074;-1.796;2023-09-18T01:55:18;3.03;;;1.52;;
78410;SDS011;67706;51.074;-1.796;2023-09-18T01:57:47;2.75;;;1.50;;
78410;SDS011;67706;51.074;-1.796;2023-09-18T02:00:14;3.47;;;1.80;;
78410;SDS011;67706;51.074;-1.796;2023-09-18T02:02:41;3.95;;;1.73;;
78410;SDS011;67706;51.074;-1.796;2023-09-18T02:05:08;4.25;;;1.98;;
78410;SDS011;67706;51.074;-1.796;2023-09-18T02:07:34;4.05;;;1.65;;
78410;SDS011;67706;51.074;-1.796;2023-09-18T02:10:01;4.85;;;2.22;;
78410;SDS011;67706;51.074;-1.796;2023-09-18T02:12:28;5.05;;;1.80;;
78410;SDS011;67706;51.074;-1.796;2023-09-18T02:14:56;4.28;;;1.75;;
78410;SDS011;67706;51.074;-1.796;2023-09-18T02:17:29;3.80;;;1.75;;
78410;SDS011;67706;51.074;-1.796;2023-09-18T02:19:55;3.97;;;1.88;;
78410;SDS011;67706;51.074;-1.796;2023-09-18T02:22:22;4.03;;;1.80;;
78410;SDS011;67706;51.074;-1.796;2023-09-18T02:24:49;7.07;;;1.92;;
78410;SDS011;67706;51.074;-1.796;2023-09-18T02:27:15;5.38;;;1.65;;
78410;SDS011;67706;51.074;-1.796;2023-09-18T02:29:43;4.18;;;2.00;;
78410;SDS011;67706;51.074;-1.796;2023-09-18T02:32:11;8.63;;;2.30;;
78410;SDS011;67706;51.074;-1.796;2023-09-18T02:34:38;3.30;;;1.95;;
78410;SDS011;67706;51.074;-1.796;2023-09-18T02:37:05;5.03;;;2.28;;
78410;SDS011;67706;51.074;-1.796;2023-09-18T02:39:32;6.60;;;2.47;;
78410;SDS011;67706;51.074;-1.796;2023-09-18T02:41:59;9.00;;;2.70;;
78410;SDS011;67706;51.074;-1.796;2023-09-18T02:44:25;4.82;;;2.38;;
78410;SDS011;67706;51.074;-1.796;2023-09-18T02:46:52;9.05;;;3.47;;
78410;SDS011;67706;51.074;-1.796;2023-09-18T02:49:20;8.52;;;3.67;;
78410;SDS011;67706;51.074;-1.796;2023-09-18T02:51:47;8.80;;;3.63;;
78410;SDS011;67706;51.074;-1.796;2023-09-18T02:54:15;9.13;;;3.80;;
78410;SDS011;67706;51.074;-1.796;2023-09-18T02:56:41;9.88;;;3.75;;
78410;SDS011;67706;51.074;-1.796;2023-09-18T02:59:08;11.15;;;4.93;;
78410;SDS011;67706;51.074;-1.796;2023-09-18T03:01:34;15.50;;;4.90;;
78410;SDS011;67706;51.074;-1.796;2023-09-18T03:04:01;13.30;;;6.03;;
78410;SDS011;67706;51.074;-1.796;2023-09-18T03:06:29;11.70;;;5.50;;
78410;SDS011;67706;51.074;-1.796;2023-09-18T03:08:55;10.90;;;4.95;;
78410;SDS011;67706;51.074;-1.796;2023-09-18T03:11:22;13.27;;;5.72;;
78410;SDS011;67706;51.074;-1.796;2023-09-18T03:13:52;15.80;;;7.20;;
78410;SDS011;67706;51.074;-1.796;2023-09-18T03:16:19;13.27;;;6.90;;
78410;SDS011;67706;51.074;-1.796;2023-09-18T03:18:45;13.77;;;6.38;;
78410;SDS011;67706;51.074;-1.796;2023-09-18T03:21:12;12.93;;;7.10;;
78410;SDS011;67706;51.074;-1.796;2023-09-18T03:23:40;16.05;;;7.28;;
78410;SDS011;67706;51.074;-1.796;2023-09-18T03:26:06;15.85;;;7.32;;
78410;SDS011;67706;51.074;-1.796;2023-09-18T03:28:33;13.68;;;6.95;;
78410;SDS011;67706;51.074;-1.796;2023-09-18T03:31:00;15.80;;;7.43;;
78410;SDS011;67706;51.074;-1.796;2023-09-18T03:33:27;19.27;;;7.53;;
78410;SDS011;67706;51.074;-1.796;2023-09-18T03:35:53;14.23;;;6.88;;
78410;SDS011;67706;51.074;-1.796;2023-09-18T03:38:23;13.80;;;7.13;;
78410;SDS011;67706;51.074;-1.796;2023-09-18T03:40:51;12.65;;;7.07;;
78410;SDS011;67706;51.074;-1.796;2023-09-18T03:43:17;17.23;;;7.95;;
78410;SDS011;67706;51.074;-1.796;2023-09-18T03:45:44;18.35;;;7.93;;
78410;SDS011;67706;51.074;-1.796;2023-09-18T03:48:11;14.77;;;8.18;;
78410;SDS011;67706;51.074;-1.796;2023-09-18T03:50:38;16.65;;;8.32;;
78410;SDS011;67706;51.074;-1.796;2023-09-18T03:53:04;15.77;;;8.07;;
78410;SDS011;67706;51.074;-1.796;2023-09-18T03:55:31;16.55;;;8.45;;
78410;SDS011;67706;51.074;-1.796;2023-09-18T03:57:59;15.82;;;7.80;;
78410;SDS011;67706;51.074;-1.796;2023-09-18T04:00:26;14.70;;;8.07;;
78410;SDS011;67706;51.074;-1.796;2023-09-18T04:02:53;16.02;;;7.78;;
78410;SDS011;67706;51.074;-1.796;2023-09-18T04:05:19;18.17;;;7.60;;
78410;SDS011;67706;51.074;-1.796;2023-09-18T04:07:46;14.48;;;8.13;;
78410;SDS011;67706;51.074;-1.796;2023-09-18T04:10:13;18.15;;;8.52;;
78410;SDS011;67706;51.074;-1.796;2023-09-18T04:12:44;15.98;;;8.25;;
78410;SDS011;67706;51.074;-1.796;2023-09-18T04:15:14;16.52;;;8.10;;
78410;SDS011;67706;51.074;-1.796;2023-09-18T04:17:42;17.42;;;8.18;;
78410;SDS011;67706;51.074;-1.796;2023-09-18T04:20:09;16.13;;;7.85;;
78410;SDS011;67706;51.074;-1.796;2023-09-18T04:22:41;15.95;;;7.53;;
78410;SDS011;67706;51.074;-1.796;2023-09-18T04:27:35;14.57;;;7.03;;
78410;SDS011;67706;51.074;-1.796;2023-09-18T04:30:02;14.40;;;7.18;;
78410;SDS011;67706;51.074;-1.796;2023-09-18T04:32:31;14.73;;;7.90;;
78410;SDS011;67706;51.074;-1.796;2023-09-18T04:34:57;13.35;;;7.53;;
78410;SDS011;67706;51.074;-1.796;2023-09-18T04:37:24;14.68;;;8.18;;
78410;SDS011;67706;51.074;-1.796;2023-09-18T04:39:51;15.88;;;7.25;;
78410;SDS011;67706;51.074;-1.796;2023-09-18T04:42:17;17.10;;;7.45;;
78410;SDS011;67706;51.074;-1.796;2023-09-18T04:44:44;15.80;;;7.80;;
78410;SDS011;67706;51.074;-1.796;2023-09-18T04:47:11;14.13;;;7.15;;
78410;SDS011;67706;51.074;-1.796;2023-09-18T04:49:39;19.75;;;8.13;;
78410;SDS011;67706;51.074;-1.796;2023-09-18T04:52:06;15.25;;;7.72;;
78410;SDS011;67706;51.074;-1.796;2023-09-18T04:54:32;18.67;;;8.13;;
78410;SDS011;67706;51.074;-1.796;2023-09-18T04:56:59;16.48;;;8.18;;
78410;SDS011;67706;51.074;-1.796;2023-09-18T04:59:25;18.00;;;8.52;;
78410;SDS011;67706;51.074;-1.796;2023-09-18T05:01:52;16.85;;;8.15;;
78410;SDS011;67706;51.074;-1.796;2023-09-18T05:04:19;16.92;;;8.93;;
78410;SDS011;67706;51.074;-1.796;2023-09-18T05:06:47;17.20;;;8.30;;
78410;SDS011;67706;51.074;-1.796;2023-09-18T05:09:14;17.50;;;8.10;;
78410;SDS011;67706;51.074;-1.796;2023-09-18T05:11:40;15.32;;;7.72;;
78410;SDS011;67706;51.074;-1.796;2023-09-18T05:14:08;17.20;;;7.90;;
78410;SDS011;67706;51.074;-1.796;2023-09-18T05:16:34;17.00;;;7.50;;
78410;SDS011;67706;51.074;-1.796;2023-09-18T05:19:01;16.42;;;7.53;;
78410;SDS011;67706;51.074;-1.796;2023-09-18T05:21:29;11.82;;;6.35;;
78410;SDS011;67706;51.074;-1.796;2023-09-18T05:23:57;14.15;;;6.25;;
78410;SDS011;67706;51.074;-1.796;2023-09-18T05:26:23;11.88;;;5.97;;
78410;SDS011;67706;51.074;-1.796;2023-09-18T05:28:51;11.18;;;5.25;;
78410;SDS011;67706;51.074;-1.796;2023-09-18T05:31:20;10.82;;;5.05;;
78410;SDS011;67706;51.074;-1.796;2023-09-18T05:33:47;13.27;;;5.25;;
78410;SDS011;67706;51.074;-1.796;2023-09-18T05:36:13;10.10;;;4.15;;
78410;SDS011;67706;51.074;-1.796;2023-09-18T05:38:40;9.75;;;4.10;;
78410;SDS011;67706;51.074;-1.796;2023-09-18T05:41:09;10.23;;;4.78;;
78410;SDS011;67706;51.074;-1.796;2023-09-18T05:43:36;12.65;;;4.93;;
78410;SDS011;67706;51.074;-1.796;2023-09-18T05:46:03;10.45;;;4.90;;
78410;SDS011;67706;51.074;-1.796;2023-09-18T05:48:29;13.15;;;4.80;;
78410;SDS011;67706;51.074;-1.796;2023-09-18T05:50:56;11.05;;;4.65;;
78410;SDS011;67706;51.074;-1.796;2023-09-18T05:53:23;10.52;;;4.60;;
78410;SDS011;67706;51.074;-1.796;2023-09-18T05:55:50;12.30;;;4.63;;
78410;SDS011;67706;51.074;-1.796;2023-09-18T05:58:18;10.93;;;4.88;;
78410;SDS011;67706;51.074;-1.796;2023-09-18T06:00:49;11.63;;;4.57;;
78410;SDS011;67706;51.074;-1.796;2023-09-18T06:03:16;12.40;;;5.40;;
78410;SDS011;67706;51.074;-1.796;2023-09-18T06:05:44;11.73;;;4.85;;
78410;SDS011;67706;51.074;-1.796;2023-09-18T06:08:11;11.07;;;5.38;;
78410;SDS011;67706;51.074;-1.796;2023-09-18T06:10:38;14.40;;;5.00;;
78410;SDS011;67706;51.074;-1.796;2023-09-18T06:13:05;9.38;;;4.50;;
78410;SDS011;67706;51.074;-1.796;2023-09-18T06:15:33;8.38;;;4.25;;
78410;SDS011;67706;51.074;-1.796;2023-09-18T06:18:00;10.20;;;4.35;;
78410;SDS011;67706;51.074;-1.796;2023-09-18T06:20:26;11.40;;;5.18;;
78410;SDS011;67706;51.074;-1.796;2023-09-18T06:22:53;9.07;;;3.92;;
78410;SDS011;67706;51.074;-1.796;2023-09-18T06:25:20;10.93;;;5.18;;
78410;SDS011;67706;51.074;-1.796;2023-09-18T06:27:46;13.32;;;5.65;;
78410;SDS011;67706;51.074;-1.796;2023-09-18T06:30:13;9.60;;;3.95;;
78410;SDS011;67706;51.074;-1.796;2023-09-18T06:32:41;10.65;;;4.45;;
78410;SDS011;67706;51.074;-1.796;2023-09-18T06:35:08;12.35;;;4.57;;
78410;SDS011;67706;51.074;-1.796;2023-09-18T06:37:35;14.13;;;4.57;;
78410;SDS011;67706;51.074;-1.796;2023-09-18T06:40:01;13.18;;;5.00;;
78410;SDS011;67706;51.074;-1.796;2023-09-18T06:42:30;10.25;;;4.63;;
78410;SDS011;67706;51.074;-1.796;2023-09-18T06:44:57;11.68;;;5.05;;
78410;SDS011;67706;51.074;-1.796;2023-09-18T06:47:26;11.48;;;5.03;;
78410;SDS011;67706;51.074;-1.796;2023-09-18T06:49:54;10.68;;;5.40;;
78410;SDS011;67706;51.074;-1.796;2023-09-18T06:52:21;12.48;;;5.00;;
78410;SDS011;67706;51.074;-1.796;2023-09-18T06:54:48;11.52;;;5.80;;
78410;SDS011;67706;51.074;-1.796;2023-09-18T06:57:14;10.77;;;5.00;;
78410;SDS011;67706;51.074;-1.796;2023-09-18T06:59:41;14.13;;;5.78;;
78410;SDS011;67706;51.074;-1.796;2023-09-18T07:02:07;17.77;;;5.32;;
78410;SDS011;67706;51.074;-1.796;2023-09-18T07:04:34;8.07;;;4.20;;
78410;SDS011;67706;51.074;-1.796;2023-09-18T07:07:03;8.88;;;3.60;;
78410;SDS011;67706;51.074;-1.796;2023-09-18T07:09:29;12.43;;;4.13;;
78410;SDS011;67706;51.074;-1.796;2023-09-18T07:11:56;9.98;;;3.75;;
78410;SDS011;67706;51.074;-1.796;2023-09-18T07:14:23;9.02;;;3.75;;
78410;SDS011;67706;51.074;-1.796;2023-09-18T07:16:51;10.80;;;3.85;;
78410;SDS011;67706;51.074;-1.796;2023-09-18T07:19:18;9.70;;;4.15;;
78410;SDS011;67706;51.074;-1.796;2023-09-18T07:21:45;9.10;;;4.50;;
78410;SDS011;67706;51.074;-1.796;2023-09-18T07:24:14;8.43;;;4.00;;
78410;SDS011;67706;51.074;-1.796;2023-09-18T07:26:43;9.98;;;3.92;;
78410;SDS011;67706;51.074;-1.796;2023-09-18T07:29:12;8.68;;;5.15;;
78410;SDS011;67706;51.074;-1.796;2023-09-18T07:31:40;16.17;;;4.90;;
78410;SDS011;67706;51.074;-1.796;2023-09-18T07:34:08;9.50;;;5.03;;
78410;SDS011;67706;51.074;-1.796;2023-09-18T07:36:35;8.23;;;3.90;;
78410;SDS011;67706;51.074;-1.796;2023-09-18T07:39:02;10.38;;;4.13;;
78410;SDS011;67706;51.074;-1.796;2023-09-18T07:41:31;10.20;;;3.70;;
78410;SDS011;67706;51.074;-1.796;2023-09-18T07:43:59;7.65;;;4.60;;
78410;SDS011;67706;51.074;-1.796;2023-09-18T07:46:26;10.45;;;4.10;;
78410;SDS011;67706;51.074;-1.796;2023-09-18T07:48:53;8.20;;;4.15;;
78410;SDS011;67706;51.074;-1.796;2023-09-18T07:51:20;13.40;;;4.20;;
78410;SDS011;67706;51.074;-1.796;2023-09-18T07:53:48;10.13;;;4.53;;
78410;SDS011;67706;51.074;-1.796;2023-09-18T07:56:15;9.77;;;4.13;;
78410;SDS011;67706;51.074;-1.796;2023-09-18T07:58:45;9.70;;;4.20;;
78410;SDS011;67706;51.074;-1.796;2023-09-18T08:01:12;8.05;;;3.33;;
78410;SDS011;67706;51.074;-1.796;2023-09-18T08:03:41;8.52;;;3.78;;
78410;SDS011;67706;51.074;-1.796;2023-09-18T08:06:09;8.63;;;4.13;;
78410;SDS011;67706;51.074;-1.796;2023-09-18T08:08:37;8.00;;;3.50;;
78410;SDS011;67706;51.074;-1.796;2023-09-18T08:11:07;7.68;;;3.33;;
78410;SDS011;67706;51.074;-1.796;2023-09-18T08:13:35;6.03;;;2.90;;
78410;SDS011;67706;51.074;-1.796;2023-09-18T08:16:05;6.85;;;2.75;;
78410;SDS011;67706;51.074;-1.796;2023-09-18T08:18:33;5.78;;;2.75;;
78410;SDS011;67706;51.074;-1.796;2023-09-18T08:21:00;9.40;;;2.70;;
78410;SDS011;67706;51.074;-1.796;2023-09-18T08:23:27;6.50;;;1.80;;
78410;SDS011;67706;51.074;-1.796;2023-09-18T08:25:54;2.40;;;1.00;;
78410;SDS011;67706;51.074;-1.796;2023-09-18T08:28:22;3.03;;;1.10;;
78410;SDS011;67706;51.074;-1.796;2023-09-18T08:30:50;3.53;;;1.20;;
78410;SDS011;67706;51.074;-1.796;2023-09-18T08:33:18;4.68;;;1.10;;
78410;SDS011;67706;51.074;-1.796;2023-09-18T08:35:46;3.55;;;0.82;;
78410;SDS011;67706;51.074;-1.796;2023-09-18T08:38:15;3.22;;;1.00;;
78410;SDS011;67706;51.074;-1.796;2023-09-18T08:40:42;3.20;;;0.88;;
78410;SDS011;67706;51.074;-1.796;2023-09-18T08:43:10;2.60;;;1.13;;
78410;SDS011;67706;51.074;-1.796;2023-09-18T08:45:43;4.05;;;0.93;;
78410;SDS011;67706;51.074;-1.796;2023-09-18T08:48:17;2.97;;;0.82;;
78410;SDS011;67706;51.074;-1.796;2023-09-18T08:50:45;2.45;;;1.00;;
78410;SDS011;67706;51.074;-1.796;2023-09-18T08:53:13;2.38;;;0.93;;
78410;SDS011;67706;51.074;-1.796;2023-09-18T08:55:41;1.67;;;0.90;;
78410;SDS011;67706;51.074;-1.796;2023-09-18T08:58:08;2.38;;;1.00;;
78410;SDS011;67706;51.074;-1.796;2023-09-18T09:00:36;4.05;;;1.00;;
78410;SDS011;67706;51.074;-1.796;2023-09-18T09:03:04;4.97;;;1.10;;
78410;SDS011;67706;51.074;-1.796;2023-09-18T09:05:33;3.63;;;1.20;;
78410;SDS011;67706;51.074;-1.796;2023-09-18T09:08:00;4.78;;;1.10;;
78410;SDS011;67706;51.074;-1.796;2023-09-18T09:10:27;5.50;;;1.17;;
78410;SDS011;67706;51.074;-1.796;2023-09-18T09:12:55;4.90;;;1.20;;
78410;SDS011;67706;51.074;-1.796;2023-09-18T09:15:24;3.70;;;1.10;;
78410;SDS011;67706;51.074;-1.796;2023-09-18T09:18:01;2.28;;;1.00;;
78410;SDS011;67706;51.074;-1.796;2023-09-18T09:20:31;1.50;;;1.08;;
78410;SDS011;67706;51.074;-1.796;2023-09-18T09:23:00;3.40;;;1.20;;
78410;SDS011;67706;51.074;-1.796;2023-09-18T09:25:29;2.30;;;1.20;;
78410;SDS011;67706;51.074;-1.796;2023-09-18T09:27:59;2.78;;;1.08;;
78410;SDS011;67706;51.074;-1.796;2023-09-18T09:30:28;6.43;;;1.23;;
78410;SDS011;67706;51.074;-1.796;2023-09-18T09:32:57;3.88;;;1.42;;
78410;SDS011;67706;51.074;-1.796;2023-09-18T09:35:25;5.20;;;1.70;;
78410;SDS011;67706;51.074;-1.796;2023-09-18T09:37:56;3.75;;;1.33;;
78410;SDS011;67706;51.074;-1.796;2023-09-18T09:40:24;6.07;;;1.40;;
78410;SDS011;67706;51.074;-1.796;2023-09-18T09:42:52;3.17;;;1.30;;
78410;SDS011;67706;51.074;-1.796;2023-09-18T09:45:25;5.03;;;1.42;;
78410;SDS011;67706;51.074;-1.796;2023-09-18T09:47:55;2.15;;;1.02;;
78410;SDS011;67706;51.074;-1.796;2023-09-18T09:50:22;4.03;;;1.05;;
78410;SDS011;67706;51.074;-1.796;2023-09-18T09:52:51;3.00;;;1.50;;
78410;SDS011;67706;51.074;-1.796;2023-09-18T09:55:26;5.45;;;1.48;;
78410;SDS011;67706;51.074;-1.796;2023-09-18T09:57:54;3.95;;;1.70;;
78410;SDS011;67706;51.074;-1.796;2023-09-18T10:00:29;5.97;;;1.38;;
78410;SDS011;67706;51.074;-1.796;2023-09-18T10:03:03;3.25;;;1.40;;
78410;SDS011;67706;51.074;-1.796;2023-09-18T10:05:31;3.22;;;1.08;;
78410;SDS011;67706;51.074;-1.796;2023-09-18T10:08:02;2.45;;;1.00;;
78410;SDS011;67706;51.074;-1.796;2023-09-18T10:10:35;2.33;;;0.93;;
78410;SDS011;67706;51.074;-1.796;2023-09-18T10:13:10;3.88;;;1.10;;
78410;SDS011;67706;51.074;-1.796;2023-09-18T10:15:42;3.60;;;1.45;;
78410;SDS011;67706;51.074;-1.796;2023-09-18T10:18:16;2.60;;;0.70;;
78410;SDS011;67706;51.074;-1.796;2023-09-18T10:20:46;1.38;;;0.70;;
78410;SDS011;67706;51.074;-1.796;2023-09-18T10:23:21;1.98;;;0.90;;
78410;SDS011;67706;51.074;-1.796;2023-09-18T10:26:00;2.38;;;1.00;;
78410;SDS011;67706;51.074;-1.796;2023-09-18T10:28:29;0.77;;;0.50;;
78410;SDS011;67706;51.074;-1.796;2023-09-18T10:30:58;1.20;;;0.70;;
78410;SDS011;67706;51.074;-1.796;2023-09-18T10:33:28;0.82;;;0.40;;
78410;SDS011;67706;51.074;-1.796;2023-09-18T10:35:56;1.63;;;0.82;;
78410;SDS011;67706;51.074;-1.796;2023-09-18T10:38:26;1.20;;;0.60;;
78410;SDS011;67706;51.074;-1.796;2023-09-18T10:40:54;3.28;;;0.93;;
78410;SDS011;67706;51.074;-1.796;2023-09-18T10:43:25;2.55;;;0.80;;
78410;SDS011;67706;51.074;-1.796;2023-09-18T10:45:52;1.45;;;0.50;;
78410;SDS011;67706;51.074;-1.796;2023-09-18T10:48:19;0.85;;;0.60;;
78410;SDS011;67706;51.074;-1.796;2023-09-18T10:50:49;1.55;;;0.57;;
78410;SDS011;67706;51.074;-1.796;2023-09-18T10:53:18;1.98;;;0.50;;
78410;SDS011;67706;51.074;-1.796;2023-09-18T10:55:45;1.20;;;0.50;;
78410;SDS011;67706;51.074;-1.796;2023-09-18T10:58:12;1.75;;;0.50;;
78410;SDS011;67706;51.074;-1.796;2023-09-18T11:00:52;2.03;;;0.60;;
78410;SDS011;67706;51.074;-1.796;2023-09-18T11:03:23;2.58;;;0.88;;
78410;SDS011;67706;51.074;-1.796;2023-09-18T11:06:01;1.92;;;1.00;;
78410;SDS011;67706;51.074;-1.796;2023-09-18T11:08:30;6.93;;;1.23;;
78410;SDS011;67706;51.074;-1.796;2023-09-18T11:11:00;4.25;;;1.70;;
78410;SDS011;67706;51.074;-1.796;2023-09-18T11:13:35;3.53;;;1.40;;
78410;SDS011;67706;51.074;-1.796;2023-09-18T11:16:32;3.95;;;1.45;;
78410;SDS011;67706;51.074;-1.796;2023-09-18T11:19:12;2.53;;;1.10;;
78410;SDS011;67706;51.074;-1.796;2023-09-18T11:21:44;3.83;;;1.35;;
78410;SDS011;67706;51.074;-1.796;2023-09-18T11:24:15;4.45;;;1.73;;
78410;SDS011;67706;51.074;-1.796;2023-09-18T11:29:13;3.40;;;1.48;;
78410;SDS011;67706;51.074;-1.796;2023-09-18T11:31:44;7.43;;;1.77;;
78410;SDS011;67706;51.074;-1.796;2023-09-18T11:34:13;3.42;;;1.40;;
78410;SDS011;67706;51.074;-1.796;2023-09-18T11:36:41;4.25;;;1.30;;
78410;SDS011;67706;51.074;-1.796;2023-09-18T11:39:08;3.05;;;1.38;;
78410;SDS011;67706;51.074;-1.796;2023-09-18T11:41:37;4.05;;;0.90;;
78410;SDS011;67706;51.074;-1.796;2023-09-18T11:47:08;3.40;;;1.00;;
78410;SDS011;67706;51.074;-1.796;2023-09-18T11:49:45;3.63;;;1.20;;
78410;SDS011;67706;51.074;-1.796;2023-09-18T11:52:16;3.08;;;1.00;;
78410;SDS011;67706;51.074;-1.796;2023-09-18T11:54:43;4.75;;;1.52;;
78410;SDS011;67706;51.074;-1.796;2023-09-18T11:57:12;3.20;;;1.20;;
78410;SDS011;67706;51.074;-1.796;2023-09-18T11:59:40;2.72;;;1.08;;
78410;SDS011;67706;51.074;-1.796;2023-09-18T12:02:10;4.60;;;1.38;;
78410;SDS011;67706;51.074;-1.796;2023-09-18T12:04:45;3.85;;;1.30;;
78410;SDS011;67706;51.074;-1.796;2023-09-18T12:07:12;3.47;;;1.13;;
78410;SDS011;67706;51.074;-1.796;2023-09-18T12:09:39;4.03;;;1.27;;
78410;SDS011;67706;51.074;-1.796;2023-09-18T12:12:06;7.63;;;1.27;;
78410;SDS011;67706;51.074;-1.796;2023-09-18T12:14:34;3.63;;;1.00;;
78410;SDS011;67706;51.074;-1.796;2023-09-18T12:17:01;4.30;;;1.10;;
78410;SDS011;67706;51.074;-1.796;2023-09-18T12:19:30;1.48;;;0.47;;
78410;SDS011;67706;51.074;-1.796;2023-09-18T12:21:59;2.60;;;0.88;;
78410;SDS011;67706;51.074;-1.796;2023-09-18T12:24:26;1.38;;;0.80;;
78410;SDS011;67706;51.074;-1.796;2023-09-18T12:26:54;4.25;;;1.05;;
78410;SDS011;67706;51.074;-1.796;2023-09-18T12:29:21;3.72;;;1.40;;
78410;SDS011;67706;51.074;-1.796;2023-09-18T12:31:48;3.00;;;1.15;;
78410;SDS011;67706;51.074;-1.796;2023-09-18T12:34:17;2.38;;;0.85;;
78410;SDS011;67706;51.074;-1.796;2023-09-18T12:36:47;2.78;;;1.20;;
78410;SDS011;67706;51.074;-1.796;2023-09-18T12:39:14;3.55;;;1.02;;
78410;SDS011;67706;51.074;-1.796;2023-09-18T12:41:41;1.95;;;0.90;;
78410;SDS011;67706;51.074;-1.796;2023-09-18T12:44:10;2.92;;;1.10;;
78410;SDS011;67706;51.074;-1.796;2023-09-18T12:46:37;3.08;;;0.90;;
78410;SDS011;67706;51.074;-1.796;2023-09-18T12:49:16;2.15;;;0.75;;
78410;SDS011;67706;51.074;-1.796;2023-09-18T12:51:43;4.93;;;0.90;;
78410;SDS011;67706;51.074;-1.796;2023-09-18T12:54:13;2.28;;;0.70;;
78410;SDS011;67706;51.074;-1.796;2023-09-18T12:56:41;4.95;;;0.80;;
78410;SDS011;67706;51.074;-1.796;2023-09-18T12:59:07;3.17;;;0.90;;
78410;SDS011;67706;51.074;-1.796;2023-09-18T13:01:34;3.95;;;0.60;;
78410;SDS011;67706;51.074;-1.796;2023-09-18T13:04:03;4.68;;;0.77;;
78410;SDS011;67706;51.074;-1.796;2023-09-18T13:06:31;2.58;;;0.80;;
78410;SDS011;67706;51.074;-1.796;2023-09-18T13:11:55;3.33;;;0.88;;
78410;SDS011;67706;51.074;-1.796;2023-09-18T13:14:22;2.22;;;0.80;;
78410;SDS011;67706;51.074;-1.796;2023-09-18T13:16:49;2.95;;;0.88;;
78410;SDS011;67706;51.074;-1.796;2023-09-18T13:19:16;2.83;;;0.80;;
78410;SDS011;67706;51.074;-1.796;2023-09-18T13:21:47;3.70;;;0.85;;
78410;SDS011;67706;51.074;-1.796;2023-09-18T13:24:28;2.75;;;0.60;;
78410;SDS011;67706;51.074;-1.796;2023-09-18T13:26:56;3.28;;;0.70;;
78410;SDS011;67706;51.074;-1.796;2023-09-18T13:29:24;3.58;;;1.05;;
78410;SDS011;67706;51.074;-1.796;2023-09-18T13:31:50;4.22;;;0.93;;
78410;SDS011;67706;51.074;-1.796;2023-09-18T13:34:17;2.13;;;0.70;;
78410;SDS011;67706;51.074;-1.796;2023-09-18T13:36:44;1.58;;;0.60;;
78410;SDS011;67706;51.074;-1.796;2023-09-18T13:39:11;2.95;;;0.90;;
78410;SDS011;67706;51.074;-1.796;2023-09-18T13:41:39;2.95;;;0.70;;
78410;SDS011;67706;51.074;-1.796;2023-09-18T13:44:07;3.70;;;0.45;;
78410;SDS011;67706;51.074;-1.796;2023-09-18T13:46:35;1.55;;;0.50;;
78410;SDS011;67706;51.074;-1.796;2023-09-18T13:49:02;4.15;;;0.68;;
78410;SDS011;67706;51.074;-1.796;2023-09-18T13:51:30;2.25;;;0.38;;
78410;SDS011;67706;51.074;-1.796;2023-09-18T13:53:57;1.58;;;0.30;;
78410;SDS011;67706;51.074;-1.796;2023-09-18T13:56:24;2.78;;;0.60;;
78410;SDS011;67706;51.074;-1.796;2023-09-18T13:58:54;2.38;;;0.30;;
78410;SDS011;67706;51.074;-1.796;2023-09-18T14:01:21;2.03;;;0.40;;
78410;SDS011;67706;51.074;-1.796;2023-09-18T14:03:49;1.15;;;0.40;;
78410;SDS011;67706;51.074;-1.796;2023-09-18T14:06:17;4.80;;;0.65;;
78410;SDS011;67706;51.074;-1.796;2023-09-18T14:08:43;2.42;;;0.50;;
78410;SDS011;67706;51.074;-1.796;2023-09-18T14:11:10;3.20;;;0.50;;
78410;SDS011;67706;51.074;-1.796;2023-09-18T14:13:37;2.20;;;0.45;;
78410;SDS011;67706;51.074;-1.796;2023-09-18T14:16:05;0.85;;;0.32;;
78410;SDS011;67706;51.074;-1.796;2023-09-18T14:18:32;3.03;;;0.85;;
78410;SDS011;67706;51.074;-1.796;2023-09-18T14:20:59;4.25;;;0.82;;
78410;SDS011;67706;51.074;-1.796;2023-09-18T14:23:26;2.42;;;0.82;;
78410;SDS011;67706;51.074;-1.796;2023-09-18T14:25:53;4.95;;;0.90;;
78410;SDS011;67706;51.074;-1.796;2023-09-18T14:28:20;2.78;;;0.60;;
78410;SDS011;67706;51.074;-1.796;2023-09-18T14:30:47;5.97;;;0.85;;
78410;SDS011;67706;51.074;-1.796;2023-09-18T14:33:15;3.63;;;0.73;;
78410;SDS011;67706;51.074;-1.796;2023-09-18T14:35:42;2.63;;;0.60;;
78410;SDS011;67706;51.074;-1.796;2023-09-18T14:38:08;7.57;;;1.08;;
78410;SDS011;67706;51.074;-1.796;2023-09-18T14:40:35;5.25;;;1.08;;
78410;SDS011;67706;51.074;-1.796;2023-09-18T14:43:02;2.65;;;0.88;;
78410;SDS011;67706;51.074;-1.796;2023-09-18T14:45:30;2.70;;;0.80;;
78410;SDS011;67706;51.074;-1.796;2023-09-18T14:47:57;3.15;;;0.80;;
78410;SDS011;67706;51.074;-1.796;2023-09-18T14:50:25;3.30;;;1.05;;
78410;SDS011;67706;51.074;-1.796;2023-09-18T14:52:51;6.25;;;1.15;;
78410;SDS011;67706;51.074;-1.796;2023-09-18T14:55:18;3.58;;;0.70;;
78410;SDS011;67706;51.074;-1.796;2023-09-18T14:57:45;0.95;;;0.32;;
78410;SDS011;67706;51.074;-1.796;2023-09-18T15:00:14;1.75;;;0.50;;
78410;SDS011;67706;51.074;-1.796;2023-09-18T15:02:41;3.35;;;0.90;;
78410;SDS011;67706;51.074;-1.796;2023-09-18T15:05:08;2.33;;;0.60;;